createdAt,value
2018-12-07T00:00:21.860Z,1010.36
2018-12-07T00:01:21.873Z,1010.32
2018-12-07T00:02:21.856Z,1010.32
2018-12-07T00:03:21.877Z,1010.31
2018-12-07T00:04:21.852Z,1010.27
2018-12-07T00:05:21.870Z,1010.26
2018-12-07T00:06:21.852Z,1010.26
2018-12-07T00:07:22.067Z,1010.29
2018-12-07T00:08:21.859Z,1010.22
2018-12-07T00:09:21.859Z,1010.21
2018-12-07T00:10:21.860Z,1010.25
2018-12-07T00:11:21.850Z,1010.18
2018-12-07T00:12:21.843Z,1010.23
2018-12-07T00:13:21.856Z,1010.22
2018-12-07T00:14:21.860Z,1010.18
2018-12-07T00:15:22.111Z,1010.21
2018-12-07T00:16:21.843Z,1010.18
2018-12-07T00:17:21.846Z,1010.14
2018-12-07T00:18:21.848Z,1010.15
2018-12-07T00:19:22.055Z,1010.17
2018-12-07T00:20:21.834Z,1010.15
2018-12-07T00:21:22.051Z,1010.13
2018-12-07T00:22:21.843Z,1010.14
2018-12-07T00:23:21.832Z,1010.09
2018-12-07T00:24:21.832Z,1010.07
2018-12-07T00:25:21.832Z,1010.07
2018-12-07T00:26:21.839Z,1010.07
2018-12-07T00:27:21.837Z,1010.04
2018-12-07T00:28:22.028Z,1010.03
2018-12-07T00:29:21.818Z,1010.02
2018-12-07T00:30:21.825Z,1010.01
2018-12-07T00:31:21.832Z,1009.99
2018-12-07T00:32:21.838Z,1009.99
2018-12-07T00:33:22.034Z,1009.96
2018-12-07T00:34:21.830Z,1009.92
2018-12-07T00:35:21.825Z,1009.91
2018-12-07T00:36:21.815Z,1009.87
2018-12-07T00:37:21.808Z,1009.86
2018-12-07T00:38:21.817Z,1009.87
2018-12-07T00:39:21.833Z,1009.85
2018-12-07T00:40:21.830Z,1009.82
2018-12-07T00:41:21.816Z,1009.78
2018-12-07T00:42:21.809Z,1009.86
2018-12-07T00:43:21.803Z,1009.83
2018-12-07T00:44:21.827Z,1009.78
2018-12-07T00:45:21.804Z,1009.73
2018-12-07T00:46:22.029Z,1009.72
2018-12-07T00:47:21.825Z,1009.70
2018-12-07T00:48:21.800Z,1009.78
2018-12-07T00:49:21.803Z,1009.72
2018-12-07T00:50:21.797Z,1009.72
2018-12-07T00:51:21.806Z,1009.70
2018-12-07T00:52:21.805Z,1009.67
2018-12-07T00:53:21.803Z,1009.70
2018-12-07T00:54:21.999Z,1009.68
2018-12-07T00:55:21.796Z,1009.69
2018-12-07T00:56:21.786Z,1009.62
2018-12-07T00:57:21.984Z,1009.67
2018-12-07T00:58:21.793Z,1009.69
2018-12-07T00:59:21.793Z,1009.68
2018-12-07T01:00:21.779Z,1009.69
2018-12-07T01:01:21.779Z,1009.67
2018-12-07T01:02:21.786Z,1009.66
2018-12-07T01:03:22.007Z,1009.61
2018-12-07T01:04:21.777Z,1009.67
2018-12-07T01:05:21.776Z,1009.63
2018-12-07T01:06:21.801Z,1009.59
2018-12-07T01:07:21.778Z,1009.62
2018-12-07T01:08:21.781Z,1009.61
2018-12-07T01:09:21.789Z,1009.58
2018-12-07T01:10:21.988Z,1009.57
2018-12-07T01:11:21.770Z,1009.58
2018-12-07T01:12:21.779Z,1009.60
2018-12-07T01:13:21.766Z,1009.55
2018-12-07T01:14:21.780Z,1009.54
2018-12-07T01:15:21.774Z,1009.52
2018-12-07T01:16:21.759Z,1009.50
2018-12-07T01:17:21.768Z,1009.47
2018-12-07T01:18:21.776Z,1009.48
2018-12-07T01:19:21.968Z,1009.53
2018-12-07T01:20:21.776Z,1009.45
2018-12-07T01:21:21.777Z,1009.47
2018-12-07T01:22:21.984Z,1009.48
2018-12-07T01:23:21.772Z,1009.43
2018-12-07T01:24:21.776Z,1009.41
2018-12-07T01:25:21.973Z,1009.43
2018-12-07T01:26:21.767Z,1009.35
2018-12-07T01:27:21.963Z,1009.37
2018-12-07T01:28:21.754Z,1009.36
2018-12-07T01:29:21.742Z,1009.35
2018-12-07T01:30:21.744Z,1009.35
2018-12-07T01:31:21.764Z,1009.39
2018-12-07T01:32:21.947Z,1009.35
2018-12-07T01:33:21.758Z,1009.35
2018-12-07T01:34:21.762Z,1009.31
2018-12-07T01:35:21.755Z,1009.31
2018-12-07T01:36:21.736Z,1009.32
2018-12-07T01:37:21.739Z,1009.30
2018-12-07T01:38:21.739Z,1009.31
2018-12-07T01:39:21.742Z,1009.34
2018-12-07T01:40:21.748Z,1009.30
2018-12-07T01:41:21.731Z,1009.31
2018-12-07T01:42:21.730Z,1009.32
2018-12-07T01:43:21.936Z,1009.31
2018-12-07T01:44:21.727Z,1009.27
2018-12-07T01:45:21.726Z,1009.30
2018-12-07T01:46:21.742Z,1009.27
2018-12-07T01:47:21.737Z,1009.30
2018-12-07T01:48:21.724Z,1009.31
2018-12-07T01:49:21.729Z,1009.29
2018-12-07T01:50:21.938Z,1009.28
2018-12-07T01:51:21.722Z,1009.27
2018-12-07T01:52:21.749Z,1009.24
2018-12-07T01:53:21.736Z,1009.24
2018-12-07T01:54:21.939Z,1009.27
2018-12-07T01:55:21.748Z,1009.23
2018-12-07T01:56:21.723Z,1009.24
2018-12-07T01:57:21.727Z,1009.24
2018-12-07T01:58:21.710Z,1009.20
2018-12-07T01:59:21.720Z,1009.18
2018-12-07T02:00:21.711Z,1009.19
2018-12-07T02:01:21.711Z,1009.17
2018-12-07T02:02:21.703Z,1009.16
2018-12-07T02:03:21.908Z,1009.16
2018-12-07T02:04:21.736Z,1009.19
2018-12-07T02:05:21.717Z,1009.16
2018-12-07T02:06:21.722Z,1009.13
2018-12-07T02:07:21.906Z,1009.14
2018-12-07T02:08:21.697Z,1009.13
2018-12-07T02:09:21.700Z,1009.13
2018-12-07T02:10:21.917Z,1009.13
2018-12-07T02:11:21.706Z,1009.09
2018-12-07T02:12:21.709Z,1009.08
2018-12-07T02:13:21.694Z,1009.08
2018-12-07T02:14:21.700Z,1009.06
2018-12-07T02:15:21.696Z,1009.07
2018-12-07T02:16:21.899Z,1009.06
2018-12-07T02:17:21.892Z,1009.00
2018-12-07T02:18:21.687Z,1009.00
2018-12-07T02:19:21.896Z,1009.01
2018-12-07T02:20:21.694Z,1008.99
2018-12-07T02:21:21.690Z,1009.01
2018-12-07T02:22:21.680Z,1008.96
2018-12-07T02:23:21.686Z,1008.93
2018-12-07T02:24:21.678Z,1008.94
2018-12-07T02:25:21.677Z,1008.90
2018-12-07T02:26:21.697Z,1008.87
2018-12-07T02:27:21.689Z,1008.89
2018-12-07T02:28:21.893Z,1008.84
2018-12-07T02:29:21.671Z,1008.90
2018-12-07T02:30:21.699Z,1008.86
2018-12-07T02:31:21.874Z,1008.83
2018-12-07T02:32:21.672Z,1008.77
2018-12-07T02:33:21.670Z,1008.78
2018-12-07T02:34:21.675Z,1008.76
2018-12-07T02:35:21.667Z,1008.77
2018-12-07T02:36:21.871Z,1008.71
2018-12-07T02:37:21.667Z,1008.69
2018-12-07T02:38:21.678Z,1008.71
2018-12-07T02:39:21.677Z,1008.71
2018-12-07T02:40:21.665Z,1008.70
2018-12-07T02:41:21.663Z,1008.68
2018-12-07T02:42:21.670Z,1008.72
2018-12-07T02:43:21.658Z,1008.69
2018-12-07T02:44:21.961Z,1008.70
2018-12-07T02:45:21.655Z,1008.71
2018-12-07T02:46:21.954Z,1008.62
2018-12-07T02:47:21.856Z,1008.60
2018-12-07T02:48:21.650Z,1008.64
2018-12-07T02:49:21.673Z,1008.63
2018-12-07T02:50:21.668Z,1008.63
2018-12-07T02:51:21.856Z,1008.63
2018-12-07T02:52:21.644Z,1008.58
2018-12-07T02:53:21.917Z,1008.57
2018-12-07T02:54:21.673Z,1008.58
2018-12-07T02:55:21.678Z,1008.49
2018-12-07T02:56:21.850Z,1008.53
2018-12-07T02:57:21.845Z,1008.52
2018-12-07T02:58:21.649Z,1008.48
2018-12-07T02:59:21.843Z,1008.48
2018-12-07T03:00:21.845Z,1008.48
2018-12-07T03:01:21.845Z,1008.48
2018-12-07T03:02:21.655Z,1008.46
2018-12-07T03:03:21.643Z,1008.51
2018-12-07T03:04:21.634Z,1008.44
2018-12-07T03:05:21.648Z,1008.42
2018-12-07T03:06:21.633Z,1008.45
2018-12-07T03:07:21.634Z,1008.44
2018-12-07T03:08:21.624Z,1008.42
2018-12-07T03:09:21.621Z,1008.37
2018-12-07T03:10:21.645Z,1008.37
2018-12-07T03:11:21.618Z,1008.36
2018-12-07T03:12:21.623Z,1008.38
2018-12-07T03:13:21.642Z,1008.34
2018-12-07T03:14:21.631Z,1008.31
2018-12-07T03:15:21.614Z,1008.31
2018-12-07T03:16:21.613Z,1008.27
2018-12-07T03:17:21.624Z,1008.28
2018-12-07T03:18:21.825Z,1008.24
2018-12-07T03:19:21.615Z,1008.22
2018-12-07T03:20:21.824Z,1008.21
2018-12-07T03:21:21.624Z,1008.24
2018-12-07T03:22:21.607Z,1008.19
2018-12-07T03:23:21.602Z,1008.15
2018-12-07T03:24:21.600Z,1008.21
2018-12-07T03:25:21.606Z,1008.18
2018-12-07T03:26:21.819Z,1008.22
2018-12-07T03:27:21.619Z,1008.14
2018-12-07T03:28:21.611Z,1008.08
2018-12-07T03:29:21.793Z,1008.16
2018-12-07T03:30:21.620Z,1008.14
2018-12-07T03:31:21.597Z,1008.08
2018-12-07T03:32:21.808Z,1008.07
2018-12-07T03:33:21.596Z,1008.09
2018-12-07T03:34:21.592Z,1008.12
2018-12-07T03:35:21.610Z,1008.06
2018-12-07T03:36:21.829Z,1008.11
2018-12-07T03:37:21.595Z,1008.08
2018-12-07T03:38:21.585Z,1008.04
2018-12-07T03:39:21.588Z,1008.02
2018-12-07T03:40:21.581Z,1007.97
2018-12-07T03:41:21.578Z,1007.99
2018-12-07T03:42:21.588Z,1007.93
2018-12-07T03:43:21.602Z,1007.94
2018-12-07T03:44:21.575Z,1007.92
2018-12-07T03:45:21.606Z,1007.91
2018-12-07T03:46:21.589Z,1007.91
2018-12-07T03:47:21.571Z,1007.96
2018-12-07T03:48:21.565Z,1007.89
2018-12-07T03:49:21.590Z,1007.88
2018-12-07T03:50:21.590Z,1007.88
2018-12-07T03:51:21.576Z,1007.83
2018-12-07T03:52:21.577Z,1007.85
2018-12-07T03:53:21.574Z,1007.81
2018-12-07T03:54:21.578Z,1007.78
2018-12-07T03:55:21.608Z,1007.80
2018-12-07T03:56:21.574Z,1007.76
2018-12-07T03:57:21.756Z,1007.78
2018-12-07T03:58:21.565Z,1007.71
2018-12-07T03:59:21.761Z,1007.73
2018-12-07T04:00:21.575Z,1007.68
2018-12-07T04:01:21.620Z,1007.66
2018-12-07T04:02:21.550Z,1007.63
2018-12-07T04:03:21.548Z,1007.65
2018-12-07T04:04:21.555Z,1007.67
2018-12-07T04:05:21.558Z,1007.66
2018-12-07T04:06:21.544Z,1007.64
2018-12-07T04:07:21.546Z,1007.59
2018-12-07T04:08:21.551Z,1007.60
2018-12-07T04:09:21.550Z,1007.57
2018-12-07T04:10:21.541Z,1007.55
2018-12-07T04:11:21.541Z,1007.56
2018-12-07T04:12:21.739Z,1007.53
2018-12-07T04:13:21.555Z,1007.52
2018-12-07T04:14:21.551Z,1007.52
2018-12-07T04:15:21.547Z,1007.54
2018-12-07T04:16:21.737Z,1007.51
2018-12-07T04:17:21.752Z,1007.47
2018-12-07T04:18:21.735Z,1007.44
2018-12-07T04:19:21.552Z,1007.45
2018-12-07T04:20:21.544Z,1007.47
2018-12-07T04:21:21.541Z,1007.45
2018-12-07T04:22:21.522Z,1007.41
2018-12-07T04:23:21.537Z,1007.39
2018-12-07T04:24:21.522Z,1007.40
2018-12-07T04:25:21.521Z,1007.38
2018-12-07T04:26:21.533Z,1007.36
2018-12-07T04:27:21.547Z,1007.35
2018-12-07T04:28:21.513Z,1007.37
2018-12-07T04:29:21.526Z,1007.37
2018-12-07T04:30:21.518Z,1007.37
2018-12-07T04:31:21.512Z,1007.41
2018-12-07T04:32:21.514Z,1007.38
2018-12-07T04:33:21.719Z,1007.36
2018-12-07T04:34:21.723Z,1007.38
2018-12-07T04:35:21.505Z,1007.38
2018-12-07T04:36:21.537Z,1007.35
2018-12-07T04:37:21.505Z,1007.31
2018-12-07T04:38:21.504Z,1007.34
2018-12-07T04:39:21.508Z,1007.30
2018-12-07T04:40:21.512Z,1007.32
2018-12-07T04:41:21.517Z,1007.25
2018-12-07T04:42:21.516Z,1007.29
2018-12-07T04:43:21.498Z,1007.25
2018-12-07T04:44:21.519Z,1007.25
2018-12-07T04:45:21.499Z,1007.23
2018-12-07T04:46:21.501Z,1007.22
2018-12-07T04:47:21.518Z,1007.24
2018-12-07T04:48:21.489Z,1007.21
2018-12-07T04:49:21.706Z,1007.22
2018-12-07T04:50:21.498Z,1007.19
2018-12-07T04:51:21.497Z,1007.17
2018-12-07T04:52:21.691Z,1007.16
2018-12-07T04:53:21.485Z,1007.13
2018-12-07T04:54:21.502Z,1007.16
2018-12-07T04:55:21.684Z,1007.14
2018-12-07T04:56:21.486Z,1007.08
2018-12-07T04:57:21.492Z,1007.09
2018-12-07T04:58:21.494Z,1007.10
2018-12-07T04:59:21.474Z,1007.07
2018-12-07T05:00:21.483Z,1007.03
2018-12-07T05:01:21.485Z,1007.03
2018-12-07T05:02:21.487Z,1007.05
2018-12-07T05:03:21.477Z,1007.06
2018-12-07T05:04:21.473Z,1007.06
2018-12-07T05:05:21.492Z,1007.05
2018-12-07T05:06:21.477Z,1007.04
2018-12-07T05:07:21.520Z,1007.00
2018-12-07T05:08:21.469Z,1006.96
2018-12-07T05:09:21.466Z,1006.96
2018-12-07T05:10:21.462Z,1006.94
2018-12-07T05:11:21.676Z,1006.91
2018-12-07T05:12:21.481Z,1006.91
2018-12-07T05:13:21.454Z,1006.87
2018-12-07T05:14:21.474Z,1006.85
2018-12-07T05:15:21.474Z,1006.83
2018-12-07T05:16:21.497Z,1006.83
2018-12-07T05:17:21.489Z,1006.84
2018-12-07T05:18:21.459Z,1006.83
2018-12-07T05:19:21.448Z,1006.84
2018-12-07T05:20:21.458Z,1006.81
2018-12-07T05:21:21.454Z,1006.80
2018-12-07T05:22:21.457Z,1006.78
2018-12-07T05:23:21.461Z,1006.76
2018-12-07T05:24:21.646Z,1006.72
2018-12-07T05:25:21.442Z,1006.74
2018-12-07T05:26:21.451Z,1006.72
2018-12-07T05:27:21.439Z,1006.72
2018-12-07T05:28:21.441Z,1006.71
2018-12-07T05:29:21.434Z,1006.65
2018-12-07T05:30:21.437Z,1006.63
2018-12-07T05:31:21.439Z,1006.66
2018-12-07T05:32:21.436Z,1006.65
2018-12-07T05:33:21.433Z,1006.60
2018-12-07T05:34:21.446Z,1006.58
2018-12-07T05:35:21.426Z,1006.56
2018-12-07T05:36:21.438Z,1006.57
2018-12-07T05:37:21.423Z,1006.55
2018-12-07T05:38:21.425Z,1006.54
2018-12-07T05:39:21.428Z,1006.54
2018-12-07T05:40:21.425Z,1006.55
2018-12-07T05:41:21.420Z,1006.52
2018-12-07T05:42:21.420Z,1006.51
2018-12-07T05:43:21.419Z,1006.44
2018-12-07T05:44:21.626Z,1006.45
2018-12-07T05:45:21.432Z,1006.46
2018-12-07T05:46:21.416Z,1006.43
2018-12-07T05:47:21.408Z,1006.43
2018-12-07T05:48:23.767Z,1006.43
2018-12-07T05:49:21.403Z,1006.41
2018-12-07T05:50:21.438Z,1006.38
2018-12-07T05:51:21.417Z,1006.40
2018-12-07T05:52:21.426Z,1006.37
2018-12-07T05:53:21.417Z,1006.40
2018-12-07T05:54:21.419Z,1006.37
2018-12-07T05:55:21.606Z,1006.34
2018-12-07T05:56:21.415Z,1006.36
2018-12-07T05:57:21.412Z,1006.32
2018-12-07T05:58:21.401Z,1006.32
2018-12-07T05:59:21.402Z,1006.29
2018-12-07T06:00:21.402Z,1006.26
2018-12-07T06:01:21.396Z,1006.24
2018-12-07T06:02:21.394Z,1006.23
2018-12-07T06:03:21.399Z,1006.25
2018-12-07T06:04:21.398Z,1006.23
2018-12-07T06:05:21.476Z,1006.17
2018-12-07T06:06:21.381Z,1006.19
2018-12-07T06:07:21.408Z,1006.16
2018-12-07T06:08:21.378Z,1006.14
2018-12-07T06:09:21.381Z,1006.16
2018-12-07T06:10:21.374Z,1006.16
2018-12-07T06:11:21.389Z,1006.13
2018-12-07T06:12:21.426Z,1006.11
2018-12-07T06:13:21.384Z,1006.07
2018-12-07T06:14:21.367Z,1006.02
2018-12-07T06:15:21.368Z,1006.01
2018-12-07T06:16:21.377Z,1006.04
2018-12-07T06:17:21.381Z,1005.99
2018-12-07T06:18:21.363Z,1005.96
2018-12-07T06:19:21.562Z,1005.92
2018-12-07T06:20:21.363Z,1005.98
2018-12-07T06:21:21.379Z,1005.96
2018-12-07T06:22:21.557Z,1005.93
2018-12-07T06:23:21.382Z,1005.94
2018-12-07T06:24:21.368Z,1005.91
2018-12-07T06:25:21.420Z,1005.87
2018-12-07T06:26:21.575Z,1005.87
2018-12-07T06:27:21.358Z,1005.92
2018-12-07T06:28:21.345Z,1005.89
2018-12-07T06:29:21.551Z,1005.93
2018-12-07T06:30:21.544Z,1005.92
2018-12-07T06:31:21.343Z,1005.84
2018-12-07T06:32:21.348Z,1005.86
2018-12-07T06:33:21.352Z,1005.85
2018-12-07T06:34:21.344Z,1005.84
2018-12-07T06:35:21.339Z,1005.82
2018-12-07T06:36:21.338Z,1005.79
2018-12-07T06:37:21.329Z,1005.81
2018-12-07T06:38:21.534Z,1005.77
2018-12-07T06:39:21.329Z,1005.79
2018-12-07T06:40:21.328Z,1005.79
2018-12-07T06:41:21.321Z,1005.80
2018-12-07T06:42:21.333Z,1005.76
2018-12-07T06:43:21.324Z,1005.81
2018-12-07T06:44:21.323Z,1005.81
2018-12-07T06:45:21.323Z,1005.74
2018-12-07T06:46:21.322Z,1005.75
2018-12-07T06:47:21.315Z,1005.76
2018-12-07T06:48:21.312Z,1005.75
2018-12-07T06:49:21.518Z,1005.73
2018-12-07T06:50:21.316Z,1005.69
2018-12-07T06:51:21.325Z,1005.71
2018-12-07T06:52:21.309Z,1005.69
2018-12-07T06:53:21.304Z,1005.70
2018-12-07T06:54:21.300Z,1005.69
2018-12-07T06:55:21.300Z,1005.66
2018-12-07T06:56:21.499Z,1005.63
2018-12-07T06:57:21.292Z,1005.62
2018-12-07T06:58:21.295Z,1005.60
2018-12-07T06:59:21.293Z,1005.61
2018-12-07T07:00:21.288Z,1005.56
2018-12-07T07:01:21.298Z,1005.57
2018-12-07T07:02:21.288Z,1005.57
2018-12-07T07:03:21.491Z,1005.58
2018-12-07T07:04:21.284Z,1005.54
2018-12-07T07:05:21.288Z,1005.51
2018-12-07T07:06:21.289Z,1005.48
2018-12-07T07:07:21.288Z,1005.47
2018-12-07T07:08:21.296Z,1005.45
2018-12-07T07:09:21.288Z,1005.43
2018-12-07T07:10:21.278Z,1005.46
2018-12-07T07:11:21.274Z,1005.47
2018-12-07T07:12:21.491Z,1005.39
2018-12-07T07:13:21.478Z,1005.43
2018-12-07T07:14:21.275Z,1005.44
2018-12-07T07:15:21.286Z,1005.43
2018-12-07T07:16:23.283Z,1005.44
2018-12-07T07:17:21.470Z,1005.39
2018-12-07T07:18:21.509Z,1005.40
2018-12-07T07:19:21.479Z,1005.42
2018-12-07T07:20:21.462Z,1005.36
2018-12-07T07:21:21.252Z,1005.40
2018-12-07T07:22:21.263Z,1005.36
2018-12-07T07:23:21.253Z,1005.37
2018-12-07T07:24:21.266Z,1005.33
2018-12-07T07:25:21.247Z,1005.34
2018-12-07T07:26:21.254Z,1005.36
2018-12-07T07:27:21.264Z,1005.32
2018-12-07T07:28:21.238Z,1005.32
2018-12-07T07:29:21.270Z,1005.30
2018-12-07T07:30:21.247Z,1005.29
2018-12-07T07:31:21.238Z,1005.27
2018-12-07T07:32:21.231Z,1005.24
2018-12-07T07:33:21.262Z,1005.25
2018-12-07T07:34:21.259Z,1005.26
2018-12-07T07:35:21.238Z,1005.21
2018-12-07T07:36:21.226Z,1005.23
2018-12-07T07:37:21.229Z,1005.15
2018-12-07T07:38:21.222Z,1005.16
2018-12-07T07:39:21.247Z,1005.15
2018-12-07T07:40:21.431Z,1005.17
2018-12-07T07:41:21.430Z,1005.13
2018-12-07T07:42:21.229Z,1005.16
2018-12-07T07:43:21.241Z,1005.15
2018-12-07T07:44:21.208Z,1005.16
2018-12-07T07:45:21.241Z,1005.14
2018-12-07T07:46:21.231Z,1005.14
2018-12-07T07:47:21.219Z,1005.14
2018-12-07T07:48:21.218Z,1005.14
2018-12-07T07:49:21.207Z,1005.08
2018-12-07T07:50:21.197Z,1005.10
2018-12-07T07:51:21.197Z,1005.12
2018-12-07T07:52:21.202Z,1005.09
2018-12-07T07:53:21.399Z,1005.09
2018-12-07T07:54:21.259Z,1005.10
2018-12-07T07:55:21.202Z,1005.11
2018-12-07T07:56:21.405Z,1005.08
2018-12-07T07:57:21.212Z,1005.04
2018-12-07T07:58:21.202Z,1005.00
2018-12-07T07:59:21.197Z,1005.02
2018-12-07T08:00:21.185Z,1005.03
2018-12-07T08:01:21.179Z,1005.03
2018-12-07T08:02:21.199Z,1005.00
2018-12-07T08:03:21.181Z,1005.05
2018-12-07T08:04:21.187Z,1004.99
2018-12-07T08:05:21.169Z,1005.00
2018-12-07T08:06:21.232Z,1004.97
2018-12-07T08:07:21.174Z,1004.96
2018-12-07T08:08:21.181Z,1004.96
2018-12-07T08:09:21.178Z,1004.94
2018-12-07T08:10:21.164Z,1004.97
2018-12-07T08:11:21.166Z,1004.95
2018-12-07T08:12:21.197Z,1004.95
2018-12-07T08:13:21.376Z,1004.91
2018-12-07T08:14:21.167Z,1004.92
2018-12-07T08:15:21.183Z,1004.90
2018-12-07T08:16:21.369Z,1004.91
2018-12-07T08:17:21.164Z,1004.88
2018-12-07T08:18:21.181Z,1004.93
2018-12-07T08:19:21.374Z,1004.92
2018-12-07T08:20:21.161Z,1004.91
2018-12-07T08:21:21.348Z,1004.85
2018-12-07T08:22:21.168Z,1004.86
2018-12-07T08:23:21.341Z,1004.87
2018-12-07T08:24:21.170Z,1004.84
2018-12-07T08:25:21.159Z,1004.86
2018-12-07T08:26:21.155Z,1004.82
2018-12-07T08:27:21.145Z,1004.86
2018-12-07T08:28:22.658Z,1004.80
2018-12-07T08:29:21.133Z,1004.86
2018-12-07T08:30:21.350Z,1004.84
2018-12-07T08:31:21.132Z,1004.83
2018-12-07T08:32:21.331Z,1004.82
2018-12-07T08:33:21.139Z,1004.83
2018-12-07T08:34:21.322Z,1004.81
2018-12-07T08:35:21.133Z,1004.83
2018-12-07T08:36:21.141Z,1004.83
2018-12-07T08:37:21.131Z,1004.79
2018-12-07T08:38:21.128Z,1004.79
2018-12-07T08:39:21.114Z,1004.78
2018-12-07T08:40:21.119Z,1004.79
2018-12-07T08:41:21.116Z,1004.74
2018-12-07T08:42:21.115Z,1004.70
2018-12-07T08:43:21.112Z,1004.72
2018-12-07T08:44:21.112Z,1004.63
2018-12-07T08:45:21.107Z,1004.68
2018-12-07T08:46:21.113Z,1004.66
2018-12-07T08:47:21.097Z,1004.60
2018-12-07T08:48:21.106Z,1004.62
2018-12-07T08:49:21.103Z,1004.60
2018-12-07T08:50:21.094Z,1004.59
2018-12-07T08:51:21.097Z,1004.53
2018-12-07T08:52:21.095Z,1004.49
2018-12-07T08:53:21.099Z,1004.47
2018-12-07T08:54:21.125Z,1004.48
2018-12-07T08:55:21.093Z,1004.46
2018-12-07T08:56:21.087Z,1004.48
2018-12-07T08:57:21.096Z,1004.42
2018-12-07T08:58:21.283Z,1004.40
2018-12-07T08:59:21.081Z,1004.37
2018-12-07T09:00:21.076Z,1004.35
2018-12-07T09:01:21.097Z,1004.35
2018-12-07T09:02:21.074Z,1004.37
2018-12-07T09:03:21.069Z,1004.29
2018-12-07T09:04:21.075Z,1004.31
2018-12-07T09:05:21.070Z,1004.28
2018-12-07T09:06:21.068Z,1004.26
2018-12-07T09:07:21.081Z,1004.25
2018-12-07T09:08:21.068Z,1004.30
2018-12-07T09:09:21.076Z,1004.23
2018-12-07T09:10:21.276Z,1004.16
2018-12-07T09:11:21.076Z,1004.24
2018-12-07T09:12:21.263Z,1004.19
2018-12-07T09:13:21.062Z,1004.16
2018-12-07T09:14:21.059Z,1004.17
2018-12-07T09:15:21.055Z,1004.13
2018-12-07T09:16:21.280Z,1004.11
2018-12-07T09:17:21.064Z,1004.08
2018-12-07T09:18:21.050Z,1004.08
2018-12-07T09:19:21.052Z,1004.07
2018-12-07T09:20:21.060Z,1004.06
2018-12-07T09:21:21.072Z,1004.07
2018-12-07T09:22:21.054Z,1004.06
2018-12-07T09:23:21.059Z,1004.08
2018-12-07T09:24:21.069Z,1004.06
2018-12-07T09:25:21.256Z,1004.04
2018-12-07T09:26:21.037Z,1004.02
2018-12-07T09:27:21.050Z,1004.00
2018-12-07T09:28:21.049Z,1004.04
2018-12-07T09:29:21.043Z,1004.01
2018-12-07T09:30:21.040Z,1003.93
2018-12-07T09:31:21.030Z,1003.95
2018-12-07T09:32:21.232Z,1003.96
2018-12-07T09:33:21.053Z,1003.94
2018-12-07T09:34:21.039Z,1003.92
2018-12-07T09:35:21.026Z,1003.95
2018-12-07T09:36:21.022Z,1003.86
2018-12-07T09:37:21.025Z,1003.86
2018-12-07T09:38:21.026Z,1003.82
2018-12-07T09:39:21.021Z,1003.78
2018-12-07T09:40:21.040Z,1003.70
2018-12-07T09:41:21.032Z,1003.64
2018-12-07T09:42:21.048Z,1003.65
2018-12-07T09:43:21.011Z,1003.61
2018-12-07T09:44:21.007Z,1003.60
2018-12-07T09:45:21.028Z,1003.57
2018-12-07T09:46:21.006Z,1003.57
2018-12-07T09:47:21.018Z,1003.49
2018-12-07T09:48:21.007Z,1003.46
2018-12-07T09:49:21.020Z,1003.49
2018-12-07T09:50:21.005Z,1003.42
2018-12-07T09:51:21.013Z,1003.43
2018-12-07T09:52:20.999Z,1003.40
2018-12-07T09:53:20.999Z,1003.35
2018-12-07T09:54:21.009Z,1003.33
2018-12-07T09:55:21.007Z,1003.35
2018-12-07T09:56:20.991Z,1003.32
2018-12-07T09:57:20.996Z,1003.22
2018-12-07T09:58:20.995Z,1003.24
2018-12-07T09:59:20.985Z,1003.22
2018-12-07T10:00:20.985Z,1003.18
2018-12-07T10:01:20.987Z,1003.12
2018-12-07T10:02:20.983Z,1003.12
2018-12-07T10:03:20.994Z,1003.12
2018-12-07T10:04:21.006Z,1003.05
2018-12-07T10:05:20.974Z,1003.07
2018-12-07T10:06:20.986Z,1002.97
2018-12-07T10:07:20.980Z,1002.96
2018-12-07T10:08:20.972Z,1002.95
2018-12-07T10:09:21.004Z,1002.91
2018-12-07T10:10:20.969Z,1002.85
2018-12-07T10:11:20.966Z,1002.83
2018-12-07T10:12:20.971Z,1002.81
2018-12-07T10:13:20.986Z,1002.82
2018-12-07T10:14:20.984Z,1002.83
2018-12-07T10:15:20.984Z,1002.87
2018-12-07T10:16:20.984Z,1002.82
2018-12-07T10:17:20.972Z,1002.80
2018-12-07T10:18:20.976Z,1002.76
2018-12-07T10:19:20.956Z,1002.75
2018-12-07T10:20:20.977Z,1002.71
2018-12-07T10:21:20.955Z,1002.74
2018-12-07T10:22:20.954Z,1002.70
2018-12-07T10:23:20.950Z,1002.68
2018-12-07T10:24:20.965Z,1002.69
2018-12-07T10:25:20.947Z,1002.65
2018-12-07T10:26:20.961Z,1002.64
2018-12-07T10:27:20.947Z,1002.56
2018-12-07T10:28:20.964Z,1002.57
2018-12-07T10:29:20.958Z,1002.52
2018-12-07T10:30:20.961Z,1002.49
2018-12-07T10:31:20.936Z,1002.50
2018-12-07T10:32:20.950Z,1002.46
2018-12-07T10:33:20.951Z,1002.42
2018-12-07T10:34:20.944Z,1002.40
2018-12-07T10:35:20.955Z,1002.39
2018-12-07T10:36:20.960Z,1002.33
2018-12-07T10:37:20.931Z,1002.34
2018-12-07T10:38:20.946Z,1002.29
2018-12-07T10:39:20.926Z,1002.30
2018-12-07T10:40:20.982Z,1002.33
2018-12-07T10:41:20.950Z,1002.25
2018-12-07T10:42:20.936Z,1002.23
2018-12-07T10:43:21.031Z,1002.16
2018-12-07T10:44:20.920Z,1002.15
2018-12-07T10:45:20.927Z,1002.12
2018-12-07T10:46:21.123Z,1002.12
2018-12-07T10:47:20.948Z,1002.10
2018-12-07T10:48:20.947Z,1002.03
2018-12-07T10:49:20.918Z,1002.04
2018-12-07T10:50:20.913Z,1002.04
2018-12-07T10:51:21.127Z,1002.01
2018-12-07T10:52:20.917Z,1002.05
2018-12-07T10:53:20.916Z,1002.04
2018-12-07T10:54:20.906Z,1002.04
2018-12-07T10:55:20.923Z,1002.00
2018-12-07T10:56:20.903Z,1002.01
2018-12-07T10:57:20.919Z,1001.98
2018-12-07T10:58:20.899Z,1001.97
2018-12-07T10:59:20.905Z,1001.93
2018-12-07T11:00:23.072Z,1001.88
2018-12-07T11:01:20.920Z,1001.88
2018-12-07T11:02:20.916Z,1001.90
2018-12-07T11:03:21.095Z,1001.85
2018-12-07T11:04:20.895Z,1001.78
2018-12-07T11:05:22.406Z,1001.79
2018-12-07T11:06:20.889Z,1001.73
2018-12-07T11:07:21.096Z,1001.72
2018-12-07T11:08:20.891Z,1001.69
2018-12-07T11:09:20.889Z,1001.69
2018-12-07T11:10:20.901Z,1001.63
2018-12-07T11:11:20.900Z,1001.61
2018-12-07T11:12:20.884Z,1001.59
2018-12-07T11:13:20.882Z,1001.51
2018-12-07T11:14:20.879Z,1001.53
2018-12-07T11:15:20.878Z,1001.49
2018-12-07T11:16:20.884Z,1001.44
2018-12-07T11:17:20.889Z,1001.38
2018-12-07T11:18:20.878Z,1001.36
2018-12-07T11:19:21.078Z,1001.33
2018-12-07T11:20:20.881Z,1001.29
2018-12-07T11:21:20.877Z,1001.27
2018-12-07T11:22:20.884Z,1001.24
2018-12-07T11:23:20.866Z,1001.25
2018-12-07T11:24:20.882Z,1001.24
2018-12-07T11:25:20.876Z,1001.23
2018-12-07T11:26:20.882Z,1001.21
2018-12-07T11:27:20.874Z,1001.17
2018-12-07T11:28:20.859Z,1001.15
2018-12-07T11:29:20.862Z,1001.12
2018-12-07T11:30:20.872Z,1001.13
2018-12-07T11:31:20.871Z,1001.12
2018-12-07T11:32:20.879Z,1001.10
2018-12-07T11:33:21.058Z,1001.10
2018-12-07T11:34:20.858Z,1001.05
2018-12-07T11:35:21.051Z,1001.03
2018-12-07T11:36:20.850Z,1001.02
2018-12-07T11:37:20.862Z,1000.97
2018-12-07T11:38:20.846Z,1001.00
2018-12-07T11:39:20.845Z,1000.94
2018-12-07T11:40:20.847Z,1000.92
2018-12-07T11:41:20.841Z,1000.83
2018-12-07T11:42:21.046Z,1000.79
2018-12-07T11:43:20.840Z,1000.76
2018-12-07T11:44:21.056Z,1000.67
2018-12-07T11:45:20.855Z,1000.57
2018-12-07T11:46:20.874Z,1000.53
2018-12-07T11:47:20.835Z,1000.56
2018-12-07T11:48:21.041Z,1000.49
2018-12-07T11:49:21.053Z,1000.42
2018-12-07T11:50:20.839Z,1000.36
2018-12-07T11:51:20.828Z,1000.39
2018-12-07T11:52:20.839Z,1000.39
2018-12-07T11:53:20.839Z,1000.34
2018-12-07T11:54:20.841Z,1000.33
2018-12-07T11:55:20.821Z,1000.25
2018-12-07T11:56:20.824Z,1000.21
2018-12-07T11:57:20.818Z,1000.11
2018-12-07T11:58:20.822Z,1000.06
2018-12-07T11:59:20.830Z,1000.04
2018-12-07T12:00:20.834Z,1000.03
2018-12-07T12:01:20.824Z,999.91
2018-12-07T12:02:26.266Z,999.83
2018-12-07T12:03:20.821Z,999.79
2018-12-07T12:04:21.020Z,999.80
2018-12-07T12:05:20.812Z,999.75